sensor_id;sensor_type;location;lat;lon;timestamp;P1;durP1;ratioP1;P2;durP2;ratioP2
9906;SDS011;4992;51.628;6.664;2022-07-29T00:00:10;1.23;;;0.40;;
9906;SDS011;4992;51.628;6.664;2022-07-29T00:02:36;3.03;;;0.68;;
9906;SDS011;4992;51.628;6.664;2022-07-29T00:05:02;3.80;;;0.68;;
9906;SDS011;4992;51.628;6.664;2022-07-29T00:07:28;1.15;;;0.60;;
9906;SDS011;4992;51.628;6.664;2022-07-29T00:09:54;2.85;;;0.70;;
9906;SDS011;4992;51.628;6.664;2022-07-29T00:12:20;4.03;;;0.95;;
9906;SDS011;4992;51.628;6.664;2022-07-29T00:14:46;1.38;;;0.57;;
9906;SDS011;4992;51.628;6.664;2022-07-29T00:17:12;3.13;;;0.68;;
9906;SDS011;4992;51.628;6.664;2022-07-29T00:19:38;1.95;;;0.77;;
9906;SDS011;4992;51.628;6.664;2022-07-29T00:22:03;2.28;;;0.82;;
9906;SDS011;4992;51.628;6.664;2022-07-29T00:24:29;2.75;;;0.90;;
9906;SDS011;4992;51.628;6.664;2022-07-29T00:26:54;3.80;;;0.45;;
9906;SDS011;4992;51.628;6.664;2022-07-29T00:29:20;2.08;;;0.95;;
9906;SDS011;4992;51.628;6.664;2022-07-29T00:31:45;1.25;;;0.70;;
9906;SDS011;4992;51.628;6.664;2022-07-29T00:34:11;5.30;;;0.63;;
9906;SDS011;4992;51.628;6.664;2022-07-29T00:36:55;3.97;;;0.77;;
9906;SDS011;4992;51.628;6.664;2022-07-29T00:39:21;2.05;;;0.40;;
9906;SDS011;4992;51.628;6.664;2022-07-29T00:41:47;1.73;;;0.60;;
9906;SDS011;4992;51.628;6.664;2022-07-29T00:44:13;1.48;;;0.50;;
9906;SDS011;4992;51.628;6.664;2022-07-29T00:46:39;1.10;;;0.50;;
9906;SDS011;4992;51.628;6.664;2022-07-29T00:49:04;3.33;;;0.95;;
9906;SDS011;4992;51.628;6.664;2022-07-29T00:51:32;2.13;;;0.70;;
9906;SDS011;4992;51.628;6.664;2022-07-29T00:54:00;2.38;;;0.68;;
9906;SDS011;4992;51.628;6.664;2022-07-29T00:56:26;2.00;;;0.60;;
9906;SDS011;4992;51.628;6.664;2022-07-29T00:58:51;1.02;;;0.60;;
9906;SDS011;4992;51.628;6.664;2022-07-29T01:01:18;1.80;;;0.55;;
9906;SDS011;4992;51.628;6.664;2022-07-29T01:03:44;3.75;;;0.88;;
9906;SDS011;4992;51.628;6.664;2022-07-29T01:06:09;0.82;;;0.68;;
9906;SDS011;4992;51.628;6.664;2022-07-29T01:08:35;3.75;;;0.82;;
9906;SDS011;4992;51.628;6.664;2022-07-29T01:11:01;2.83;;;0.80;;
9906;SDS011;4992;51.628;6.664;2022-07-29T01:13:27;2.28;;;0.47;;
9906;SDS011;4992;51.628;6.664;2022-07-29T01:15:56;3.50;;;0.70;;
9906;SDS011;4992;51.628;6.664;2022-07-29T01:23:32;5.65;;;0.85;;
9906;SDS011;4992;51.628;6.664;2022-07-29T01:28:45;1.90;;;0.50;;
9906;SDS011;4992;51.628;6.664;2022-07-29T01:31:28;2.88;;;0.85;;
9906;SDS011;4992;51.628;6.664;2022-07-29T01:34:01;1.10;;;0.52;;
9906;SDS011;4992;51.628;6.664;2022-07-29T01:36:33;2.47;;;1.02;;
9906;SDS011;4992;51.628;6.664;2022-07-29T01:39:16;1.40;;;0.60;;
9906;SDS011;4992;51.628;6.664;2022-07-29T01:41:49;2.78;;;0.50;;
9906;SDS011;4992;51.628;6.664;2022-07-29T01:44:31;3.72;;;0.80;;
9906;SDS011;4992;51.628;6.664;2022-07-29T01:47:02;4.88;;;0.65;;
9906;SDS011;4992;51.628;6.664;2022-07-29T01:49:35;2.30;;;0.50;;
9906;SDS011;4992;51.628;6.664;2022-07-29T01:52:05;1.08;;;0.60;;
9906;SDS011;4992;51.628;6.664;2022-07-29T01:54:40;4.30;;;0.63;;
9906;SDS011;4992;51.628;6.664;2022-07-29T01:57:08;2.28;;;0.50;;
9906;SDS011;4992;51.628;6.664;2022-07-29T01:59:38;2.80;;;0.40;;
9906;SDS011;4992;51.628;6.664;2022-07-29T02:02:04;1.85;;;0.63;;
9906;SDS011;4992;51.628;6.664;2022-07-29T02:04:33;0.70;;;0.68;;
9906;SDS011;4992;51.628;6.664;2022-07-29T02:07:02;2.95;;;0.57;;
9906;SDS011;4992;51.628;6.664;2022-07-29T02:09:31;8.57;;;0.57;;
9906;SDS011;4992;51.628;6.664;2022-07-29T02:11:58;3.10;;;0.63;;
9906;SDS011;4992;51.628;6.664;2022-07-29T02:14:26;5.57;;;0.57;;
9906;SDS011;4992;51.628;6.664;2022-07-29T02:16:56;0.80;;;0.50;;
9906;SDS011;4992;51.628;6.664;2022-07-29T02:19:25;0.95;;;0.60;;
9906;SDS011;4992;51.628;6.664;2022-07-29T02:21:54;1.00;;;0.73;;
9906;SDS011;4992;51.628;6.664;2022-07-29T02:24:22;4.30;;;0.47;;
9906;SDS011;4992;51.628;6.664;2022-07-29T02:26:49;2.53;;;0.70;;
9906;SDS011;4992;51.628;6.664;2022-07-29T02:29:19;0.65;;;0.50;;
9906;SDS011;4992;51.628;6.664;2022-07-29T02:31:47;0.80;;;0.50;;
9906;SDS011;4992;51.628;6.664;2022-07-29T02:34:14;2.03;;;0.50;;
9906;SDS011;4992;51.628;6.664;2022-07-29T02:36:42;1.42;;;0.88;;
9906;SDS011;4992;51.628;6.664;2022-07-29T02:39:09;2.67;;;0.70;;
9906;SDS011;4992;51.628;6.664;2022-07-29T02:41:43;2.15;;;0.68;;
9906;SDS011;4992;51.628;6.664;2022-07-29T02:44:15;0.85;;;0.45;;
9906;SDS011;4992;51.628;6.664;2022-07-29T02:46:57;1.27;;;0.55;;
9906;SDS011;4992;51.628;6.664;2022-07-29T02:49:32;2.90;;;0.73;;
9906;SDS011;4992;51.628;6.664;2022-07-29T02:52:05;2.50;;;0.60;;
9906;SDS011;4992;51.628;6.664;2022-07-29T02:57:11;1.63;;;0.60;;
9906;SDS011;4992;51.628;6.664;2022-07-29T02:59:43;3.03;;;0.90;;
9906;SDS011;4992;51.628;6.664;2022-07-29T03:02:12;5.47;;;1.30;;
9906;SDS011;4992;51.628;6.664;2022-07-29T03:04:40;6.55;;;1.65;;
9906;SDS011;4992;51.628;6.664;2022-07-29T03:07:07;2.10;;;0.95;;
9906;SDS011;4992;51.628;6.664;2022-07-29T03:09:35;4.97;;;1.10;;
9906;SDS011;4992;51.628;6.664;2022-07-29T03:12:01;4.13;;;1.00;;
9906;SDS011;4992;51.628;6.664;2022-07-29T03:14:28;1.10;;;0.98;;
9906;SDS011;4992;51.628;6.664;2022-07-29T03:16:55;2.88;;;1.40;;
9906;SDS011;4992;51.628;6.664;2022-07-29T03:19:21;1.05;;;0.77;;
9906;SDS011;4992;51.628;6.664;2022-07-29T03:21:47;1.10;;;1.00;;
9906;SDS011;4992;51.628;6.664;2022-07-29T03:24:25;2.10;;;1.42;;
9906;SDS011;4992;51.628;6.664;2022-07-29T03:26:56;3.35;;;1.23;;
9906;SDS011;4992;51.628;6.664;2022-07-29T03:29:22;1.67;;;1.05;;
9906;SDS011;4992;51.628;6.664;2022-07-29T03:31:48;2.90;;;1.13;;
9906;SDS011;4992;51.628;6.664;2022-07-29T03:34:14;2.15;;;1.10;;
9906;SDS011;4992;51.628;6.664;2022-07-29T03:36:39;2.63;;;1.23;;
9906;SDS011;4992;51.628;6.664;2022-07-29T03:39:05;2.75;;;1.20;;
9906;SDS011;4992;51.628;6.664;2022-07-29T03:41:31;3.35;;;1.42;;
9906;SDS011;4992;51.628;6.664;2022-07-29T03:43:59;3.70;;;1.40;;
9906;SDS011;4992;51.628;6.664;2022-07-29T03:46:26;1.95;;;1.20;;
9906;SDS011;4992;51.628;6.664;2022-07-29T03:48:55;1.30;;;1.20;;
9906;SDS011;4992;51.628;6.664;2022-07-29T03:51:28;5.32;;;1.40;;
9906;SDS011;4992;51.628;6.664;2022-07-29T03:53:54;3.05;;;1.55;;
9906;SDS011;4992;51.628;6.664;2022-07-29T03:56:21;1.90;;;0.80;;
9906;SDS011;4992;51.628;6.664;2022-07-29T03:58:48;3.88;;;1.48;;
9906;SDS011;4992;51.628;6.664;2022-07-29T04:01:16;4.53;;;1.20;;
9906;SDS011;4992;51.628;6.664;2022-07-29T04:03:43;1.83;;;1.55;;
9906;SDS011;4992;51.628;6.664;2022-07-29T04:06:12;5.07;;;1.20;;
9906;SDS011;4992;51.628;6.664;2022-07-29T04:08:38;2.42;;;1.63;;
9906;SDS011;4992;51.628;6.664;2022-07-29T04:11:04;3.70;;;1.67;;
9906;SDS011;4992;51.628;6.664;2022-07-29T04:13:30;4.80;;;1.50;;
9906;SDS011;4992;51.628;6.664;2022-07-29T04:15:56;2.40;;;1.48;;
9906;SDS011;4992;51.628;6.664;2022-07-29T04:18:22;6.55;;;2.05;;
9906;SDS011;4992;51.628;6.664;2022-07-29T04:20:48;5.43;;;1.80;;
9906;SDS011;4992;51.628;6.664;2022-07-29T04:23:14;3.72;;;1.73;;
9906;SDS011;4992;51.628;6.664;2022-07-29T04:25:40;4.47;;;1.90;;
9906;SDS011;4992;51.628;6.664;2022-07-29T04:28:07;1.83;;;1.73;;
9906;SDS011;4992;51.628;6.664;2022-07-29T04:30:34;3.90;;;2.58;;
9906;SDS011;4992;51.628;6.664;2022-07-29T04:33:01;3.53;;;2.17;;
9906;SDS011;4992;51.628;6.664;2022-07-29T04:35:33;2.55;;;2.08;;
9906;SDS011;4992;51.628;6.664;2022-07-29T04:38:00;3.75;;;1.98;;
9906;SDS011;4992;51.628;6.664;2022-07-29T04:40:26;4.22;;;1.90;;
9906;SDS011;4992;51.628;6.664;2022-07-29T04:42:52;3.45;;;2.35;;
9906;SDS011;4992;51.628;6.664;2022-07-29T04:45:18;2.83;;;2.05;;
9906;SDS011;4992;51.628;6.664;2022-07-29T04:47:43;4.10;;;2.00;;
9906;SDS011;4992;51.628;6.664;2022-07-29T04:50:09;6.25;;;2.30;;
9906;SDS011;4992;51.628;6.664;2022-07-29T04:52:35;2.97;;;2.20;;
9906;SDS011;4992;51.628;6.664;2022-07-29T04:55:01;4.60;;;2.30;;
9906;SDS011;4992;51.628;6.664;2022-07-29T04:57:27;6.30;;;2.70;;
9906;SDS011;4992;51.628;6.664;2022-07-29T04:59:52;2.50;;;2.28;;
9906;SDS011;4992;51.628;6.664;2022-07-29T05:02:18;3.05;;;2.05;;
9906;SDS011;4992;51.628;6.664;2022-07-29T05:04:43;2.28;;;2.10;;
9906;SDS011;4992;51.628;6.664;2022-07-29T05:07:09;3.25;;;2.42;;
9906;SDS011;4992;51.628;6.664;2022-07-29T05:09:34;2.63;;;1.65;;
9906;SDS011;4992;51.628;6.664;2022-07-29T05:12:00;2.67;;;1.90;;
9906;SDS011;4992;51.628;6.664;2022-07-29T05:14:26;3.22;;;2.03;;
9906;SDS011;4992;51.628;6.664;2022-07-29T05:16:51;3.63;;;2.47;;
9906;SDS011;4992;51.628;6.664;2022-07-29T05:19:17;3.10;;;2.30;;
9906;SDS011;4992;51.628;6.664;2022-07-29T05:21:44;2.95;;;2.03;;
9906;SDS011;4992;51.628;6.664;2022-07-29T05:24:09;6.15;;;2.22;;
9906;SDS011;4992;51.628;6.664;2022-07-29T05:26:36;2.40;;;2.20;;
9906;SDS011;4992;51.628;6.664;2022-07-29T05:29:02;3.15;;;1.90;;
9906;SDS011;4992;51.628;6.664;2022-07-29T05:31:27;10.60;;;2.38;;
9906;SDS011;4992;51.628;6.664;2022-07-29T05:33:53;5.85;;;2.10;;
9906;SDS011;4992;51.628;6.664;2022-07-29T05:36:18;4.93;;;1.90;;
9906;SDS011;4992;51.628;6.664;2022-07-29T05:38:44;4.13;;;2.53;;
9906;SDS011;4992;51.628;6.664;2022-07-29T05:41:09;2.40;;;2.20;;
9906;SDS011;4992;51.628;6.664;2022-07-29T05:43:35;3.78;;;2.30;;
9906;SDS011;4992;51.628;6.664;2022-07-29T05:46:01;3.10;;;2.20;;
9906;SDS011;4992;51.628;6.664;2022-07-29T05:48:26;3.55;;;2.55;;
9906;SDS011;4992;51.628;6.664;2022-07-29T05:50:52;2.65;;;2.42;;
9906;SDS011;4992;51.628;6.664;2022-07-29T05:53:18;3.05;;;2.17;;
9906;SDS011;4992;51.628;6.664;2022-07-29T05:55:43;3.67;;;2.30;;
9906;SDS011;4992;51.628;6.664;2022-07-29T05:58:09;6.30;;;3.17;;
9906;SDS011;4992;51.628;6.664;2022-07-29T06:00:34;3.83;;;2.55;;
9906;SDS011;4992;51.628;6.664;2022-07-29T06:03:00;2.72;;;2.25;;
9906;SDS011;4992;51.628;6.664;2022-07-29T06:05:26;2.42;;;2.25;;
9906;SDS011;4992;51.628;6.664;2022-07-29T06:07:51;3.35;;;2.70;;
9906;SDS011;4992;51.628;6.664;2022-07-29T06:10:17;2.65;;;2.45;;
9906;SDS011;4992;51.628;6.664;2022-07-29T06:12:43;4.13;;;2.22;;
9906;SDS011;4992;51.628;6.664;2022-07-29T06:15:09;10.27;;;2.30;;
9906;SDS011;4992;51.628;6.664;2022-07-29T06:17:35;2.40;;;2.20;;
9906;SDS011;4992;51.628;6.664;2022-07-29T06:20:01;4.80;;;2.70;;
9906;SDS011;4992;51.628;6.664;2022-07-29T06:22:27;6.00;;;2.78;;
9906;SDS011;4992;51.628;6.664;2022-07-29T06:24:53;2.90;;;2.60;;
9906;SDS011;4992;51.628;6.664;2022-07-29T06:27:19;3.97;;;2.75;;
9906;SDS011;4992;51.628;6.664;2022-07-29T06:29:44;3.65;;;3.03;;
9906;SDS011;4992;51.628;6.664;2022-07-29T06:32:10;4.07;;;2.50;;
9906;SDS011;4992;51.628;6.664;2022-07-29T06:34:35;5.90;;;3.20;;
9906;SDS011;4992;51.628;6.664;2022-07-29T06:37:10;7.20;;;2.72;;
9906;SDS011;4992;51.628;6.664;2022-07-29T06:39:35;4.70;;;2.70;;
9906;SDS011;4992;51.628;6.664;2022-07-29T06:42:01;6.80;;;2.80;;
9906;SDS011;4992;51.628;6.664;2022-07-29T06:44:28;5.13;;;3.25;;
9906;SDS011;4992;51.628;6.664;2022-07-29T06:46:54;4.50;;;3.03;;
9906;SDS011;4992;51.628;6.664;2022-07-29T06:49:20;5.82;;;3.10;;
9906;SDS011;4992;51.628;6.664;2022-07-29T06:51:46;5.60;;;3.20;;
9906;SDS011;4992;51.628;6.664;2022-07-29T06:54:11;4.90;;;3.20;;
9906;SDS011;4992;51.628;6.664;2022-07-29T06:56:37;5.15;;;3.10;;
9906;SDS011;4992;51.628;6.664;2022-07-29T06:59:03;4.47;;;3.35;;
9906;SDS011;4992;51.628;6.664;2022-07-29T07:01:29;3.45;;;2.90;;
9906;SDS011;4992;51.628;6.664;2022-07-29T07:03:55;5.70;;;4.18;;
9906;SDS011;4992;51.628;6.664;2022-07-29T07:06:21;6.40;;;3.58;;
9906;SDS011;4992;51.628;6.664;2022-07-29T07:08:46;8.80;;;4.00;;
9906;SDS011;4992;51.628;6.664;2022-07-29T07:11:17;4.32;;;3.20;;
9906;SDS011;4992;51.628;6.664;2022-07-29T07:13:43;3.55;;;2.78;;
9906;SDS011;4992;51.628;6.664;2022-07-29T07:16:11;5.15;;;3.22;;
9906;SDS011;4992;51.628;6.664;2022-07-29T07:18:37;5.45;;;3.05;;
9906;SDS011;4992;51.628;6.664;2022-07-29T07:21:02;4.63;;;3.97;;
9906;SDS011;4992;51.628;6.664;2022-07-29T07:23:29;5.93;;;3.15;;
9906;SDS011;4992;51.628;6.664;2022-07-29T07:25:55;4.07;;;3.20;;
9906;SDS011;4992;51.628;6.664;2022-07-29T07:28:21;3.88;;;3.38;;
9906;SDS011;4992;51.628;6.664;2022-07-29T07:30:46;3.60;;;3.05;;
9906;SDS011;4992;51.628;6.664;2022-07-29T07:33:12;7.80;;;4.05;;
9906;SDS011;4992;51.628;6.664;2022-07-29T07:35:37;5.88;;;3.95;;
9906;SDS011;4992;51.628;6.664;2022-07-29T07:38:03;4.25;;;3.83;;
9906;SDS011;4992;51.628;6.664;2022-07-29T07:40:30;6.78;;;4.13;;
9906;SDS011;4992;51.628;6.664;2022-07-29T07:42:56;6.43;;;3.72;;
9906;SDS011;4992;51.628;6.664;2022-07-29T07:45:22;7.10;;;4.55;;
9906;SDS011;4992;51.628;6.664;2022-07-29T07:47:47;4.70;;;4.22;;
9906;SDS011;4992;51.628;6.664;2022-07-29T07:50:13;9.18;;;4.47;;
9906;SDS011;4992;51.628;6.664;2022-07-29T07:52:48;6.35;;;4.63;;
9906;SDS011;4992;51.628;6.664;2022-07-29T07:55:16;5.82;;;5.05;;
9906;SDS011;4992;51.628;6.664;2022-07-29T07:57:42;10.73;;;5.97;;
9906;SDS011;4992;51.628;6.664;2022-07-29T08:00:08;5.88;;;5.38;;
9906;SDS011;4992;51.628;6.664;2022-07-29T08:02:33;9.50;;;5.45;;
9906;SDS011;4992;51.628;6.664;2022-07-29T08:04:59;8.15;;;5.25;;
9906;SDS011;4992;51.628;6.664;2022-07-29T08:07:24;10.55;;;5.50;;
9906;SDS011;4992;51.628;6.664;2022-07-29T08:09:50;5.90;;;5.22;;
9906;SDS011;4992;51.628;6.664;2022-07-29T08:12:16;5.88;;;5.38;;
9906;SDS011;4992;51.628;6.664;2022-07-29T08:14:41;7.22;;;5.28;;
9906;SDS011;4992;51.628;6.664;2022-07-29T08:17:07;6.22;;;5.30;;
9906;SDS011;4992;51.628;6.664;2022-07-29T08:19:32;6.88;;;5.35;;
9906;SDS011;4992;51.628;6.664;2022-07-29T08:21:58;5.05;;;4.57;;
9906;SDS011;4992;51.628;6.664;2022-07-29T08:24:23;7.82;;;5.10;;
9906;SDS011;4992;51.628;6.664;2022-07-29T08:27:08;6.72;;;5.22;;
9906;SDS011;4992;51.628;6.664;2022-07-29T08:29:37;6.45;;;5.50;;
9906;SDS011;4992;51.628;6.664;2022-07-29T08:32:02;6.60;;;5.00;;
9906;SDS011;4992;51.628;6.664;2022-07-29T08:34:28;7.40;;;5.30;;
9906;SDS011;4992;51.628;6.664;2022-07-29T08:36:55;9.32;;;6.32;;
9906;SDS011;4992;51.628;6.664;2022-07-29T08:39:21;7.20;;;5.78;;
9906;SDS011;4992;51.628;6.664;2022-07-29T08:41:48;5.18;;;4.75;;
9906;SDS011;4992;51.628;6.664;2022-07-29T08:44:15;8.85;;;4.95;;
9906;SDS011;4992;51.628;6.664;2022-07-29T08:46:42;5.55;;;4.95;;
9906;SDS011;4992;51.628;6.664;2022-07-29T08:49:08;6.93;;;4.75;;
9906;SDS011;4992;51.628;6.664;2022-07-29T08:51:34;5.50;;;5.00;;
9906;SDS011;4992;51.628;6.664;2022-07-29T08:54:02;8.82;;;5.07;;
9906;SDS011;4992;51.628;6.664;2022-07-29T08:56:28;5.70;;;4.50;;
9906;SDS011;4992;51.628;6.664;2022-07-29T08:58:54;7.00;;;5.35;;
9906;SDS011;4992;51.628;6.664;2022-07-29T09:01:24;6.15;;;4.97;;
9906;SDS011;4992;51.628;6.664;2022-07-29T09:03:51;6.00;;;4.95;;
9906;SDS011;4992;51.628;6.664;2022-07-29T09:06:20;8.10;;;5.22;;
9906;SDS011;4992;51.628;6.664;2022-07-29T09:08:46;8.15;;;5.80;;
9906;SDS011;4992;51.628;6.664;2022-07-29T09:11:12;7.00;;;5.85;;
9906;SDS011;4992;51.628;6.664;2022-07-29T09:13:39;7.57;;;5.40;;
9906;SDS011;4992;51.628;6.664;2022-07-29T09:16:04;9.23;;;5.63;;
9906;SDS011;4992;51.628;6.664;2022-07-29T09:18:34;7.13;;;5.53;;
9906;SDS011;4992;51.628;6.664;2022-07-29T09:21:04;5.45;;;4.97;;
9906;SDS011;4992;51.628;6.664;2022-07-29T09:24:06;7.95;;;5.55;;
9906;SDS011;4992;51.628;6.664;2022-07-29T09:26:34;9.10;;;5.40;;
9906;SDS011;4992;51.628;6.664;2022-07-29T09:31:42;6.00;;;5.40;;
9906;SDS011;4992;51.628;6.664;2022-07-29T09:34:23;10.38;;;5.90;;
9906;SDS011;4992;51.628;6.664;2022-07-29T09:36:51;9.10;;;6.25;;
9906;SDS011;4992;51.628;6.664;2022-07-29T09:41:57;6.20;;;5.53;;
9906;SDS011;4992;51.628;6.664;2022-07-29T09:44:25;6.13;;;5.53;;
9906;SDS011;4992;51.628;6.664;2022-07-29T09:49:24;5.90;;;4.95;;
9906;SDS011;4992;51.628;6.664;2022-07-29T09:52:03;7.20;;;4.65;;
9906;SDS011;4992;51.628;6.664;2022-07-29T09:54:30;5.38;;;4.72;;
9906;SDS011;4992;51.628;6.664;2022-07-29T09:57:06;7.63;;;4.85;;
9906;SDS011;4992;51.628;6.664;2022-07-29T09:59:37;5.97;;;5.00;;
9906;SDS011;4992;51.628;6.664;2022-07-29T10:02:10;5.72;;;5.10;;
9906;SDS011;4992;51.628;6.664;2022-07-29T10:04:38;4.95;;;4.28;;
9906;SDS011;4992;51.628;6.664;2022-07-29T10:07:05;7.65;;;4.60;;
9906;SDS011;4992;51.628;6.664;2022-07-29T10:09:31;5.10;;;4.40;;
9906;SDS011;4992;51.628;6.664;2022-07-29T10:12:07;5.90;;;4.28;;
9906;SDS011;4992;51.628;6.664;2022-07-29T10:14:41;5.40;;;4.18;;
9906;SDS011;4992;51.628;6.664;2022-07-29T10:17:07;4.70;;;3.50;;
9906;SDS011;4992;51.628;6.664;2022-07-29T10:19:35;5.95;;;3.92;;
9906;SDS011;4992;51.628;6.664;2022-07-29T10:22:08;6.45;;;3.63;;
9906;SDS011;4992;51.628;6.664;2022-07-29T10:24:34;4.70;;;3.85;;
9906;SDS011;4992;51.628;6.664;2022-07-29T10:27:02;3.83;;;3.10;;
9906;SDS011;4992;51.628;6.664;2022-07-29T10:29:30;4.65;;;3.25;;
9906;SDS011;4992;51.628;6.664;2022-07-29T10:41:32;5.30;;;3.65;;
9906;SDS011;4992;51.628;6.664;2022-07-29T10:46:43;4.90;;;3.60;;
9906;SDS011;4992;51.628;6.664;2022-07-29T10:51:59;3.72;;;3.40;;
9906;SDS011;4992;51.628;6.664;2022-07-29T10:54:42;4.97;;;3.00;;
9906;SDS011;4992;51.628;6.664;2022-07-29T10:57:17;3.95;;;3.50;;
9906;SDS011;4992;51.628;6.664;2022-07-29T11:04:59;3.47;;;3.17;;
9906;SDS011;4992;51.628;6.664;2022-07-29T11:07:29;5.43;;;3.50;;
9906;SDS011;4992;51.628;6.664;2022-07-29T11:28:35;2.30;;;2.10;;
9906;SDS011;4992;51.628;6.664;2022-07-29T11:31:04;2.88;;;2.55;;
9906;SDS011;4992;51.628;6.664;2022-07-29T11:33:33;3.35;;;2.38;;
9906;SDS011;4992;51.628;6.664;2022-07-29T11:36:08;5.32;;;2.25;;
9906;SDS011;4992;51.628;6.664;2022-07-29T11:38:35;6.53;;;2.85;;
9906;SDS011;4992;51.628;6.664;2022-07-29T11:43:49;2.58;;;2.25;;
9906;SDS011;4992;51.628;6.664;2022-07-29T11:46:18;2.35;;;2.13;;
9906;SDS011;4992;51.628;6.664;2022-07-29T11:49:02;4.38;;;2.70;;
9906;SDS011;4992;51.628;6.664;2022-07-29T11:51:29;5.95;;;2.47;;
9906;SDS011;4992;51.628;6.664;2022-07-29T11:53:56;7.18;;;1.92;;
9906;SDS011;4992;51.628;6.664;2022-07-29T11:56:22;4.50;;;2.00;;
9906;SDS011;4992;51.628;6.664;2022-07-29T11:58:50;3.38;;;2.35;;
9906;SDS011;4992;51.628;6.664;2022-07-29T12:01:26;2.13;;;2.00;;
9906;SDS011;4992;51.628;6.664;2022-07-29T12:04:01;4.28;;;2.25;;
9906;SDS011;4992;51.628;6.664;2022-07-29T12:06:27;3.25;;;2.20;;
9906;SDS011;4992;51.628;6.664;2022-07-29T12:08:53;7.75;;;2.30;;
9906;SDS011;4992;51.628;6.664;2022-07-29T12:11:19;4.55;;;2.30;;
9906;SDS011;4992;51.628;6.664;2022-07-29T12:13:45;2.97;;;2.10;;
9906;SDS011;4992;51.628;6.664;2022-07-29T12:16:11;4.10;;;2.22;;
9906;SDS011;4992;51.628;6.664;2022-07-29T12:18:36;6.10;;;2.15;;
9906;SDS011;4992;51.628;6.664;2022-07-29T12:21:02;3.78;;;2.45;;
9906;SDS011;4992;51.628;6.664;2022-07-29T12:23:31;4.00;;;2.42;;
9906;SDS011;4992;51.628;6.664;2022-07-29T12:25:57;2.25;;;2.03;;
9906;SDS011;4992;51.628;6.664;2022-07-29T12:28:23;4.65;;;2.83;;
9906;SDS011;4992;51.628;6.664;2022-07-29T12:30:49;2.25;;;1.90;;
9906;SDS011;4992;51.628;6.664;2022-07-29T12:33:16;2.55;;;2.35;;
9906;SDS011;4992;51.628;6.664;2022-07-29T12:35:45;5.47;;;2.35;;
9906;SDS011;4992;51.628;6.664;2022-07-29T12:38:13;2.55;;;1.75;;
9906;SDS011;4992;51.628;6.664;2022-07-29T12:40:39;2.45;;;1.90;;
9906;SDS011;4992;51.628;6.664;2022-07-29T12:43:21;4.85;;;2.20;;
9906;SDS011;4992;51.628;6.664;2022-07-29T12:45:57;2.95;;;2.30;;
9906;SDS011;4992;51.628;6.664;2022-07-29T12:48:36;3.17;;;1.95;;
9906;SDS011;4992;51.628;6.664;2022-07-29T12:51:04;2.22;;;1.85;;
9906;SDS011;4992;51.628;6.664;2022-07-29T12:53:31;6.53;;;2.22;;
9906;SDS011;4992;51.628;6.664;2022-07-29T12:55:58;2.58;;;2.20;;
9906;SDS011;4992;51.628;6.664;2022-07-29T12:58:30;2.83;;;2.03;;
9906;SDS011;4992;51.628;6.664;2022-07-29T13:01:01;4.13;;;2.35;;
9906;SDS011;4992;51.628;6.664;2022-07-29T13:06:04;2.95;;;2.42;;
9906;SDS011;4992;51.628;6.664;2022-07-29T13:08:29;3.25;;;2.25;;
9906;SDS011;4992;51.628;6.664;2022-07-29T13:10:55;7.32;;;1.90;;
9906;SDS011;4992;51.628;6.664;2022-07-29T13:13:20;4.00;;;2.63;;
9906;SDS011;4992;51.628;6.664;2022-07-29T13:15:46;4.20;;;2.10;;
9906;SDS011;4992;51.628;6.664;2022-07-29T13:18:30;2.85;;;2.30;;
9906;SDS011;4992;51.628;6.664;2022-07-29T13:20:57;3.60;;;2.28;;
9906;SDS011;4992;51.628;6.664;2022-07-29T13:23:36;4.03;;;2.83;;
9906;SDS011;4992;51.628;6.664;2022-07-29T13:26:05;4.72;;;2.90;;
9906;SDS011;4992;51.628;6.664;2022-07-29T13:28:32;7.85;;;3.08;;
9906;SDS011;4992;51.628;6.664;2022-07-29T13:30:59;4.63;;;2.78;;
9906;SDS011;4992;51.628;6.664;2022-07-29T13:33:25;4.72;;;2.38;;
9906;SDS011;4992;51.628;6.664;2022-07-29T13:35:50;4.30;;;3.35;;
9906;SDS011;4992;51.628;6.664;2022-07-29T13:38:16;5.32;;;3.08;;
9906;SDS011;4992;51.628;6.664;2022-07-29T13:40:41;5.07;;;2.92;;
9906;SDS011;4992;51.628;6.664;2022-07-29T13:43:10;4.72;;;3.30;;
9906;SDS011;4992;51.628;6.664;2022-07-29T13:45:36;4.30;;;2.85;;
9906;SDS011;4992;51.628;6.664;2022-07-29T13:48:02;3.72;;;2.65;;
9906;SDS011;4992;51.628;6.664;2022-07-29T13:50:28;4.90;;;2.80;;
9906;SDS011;4992;51.628;6.664;2022-07-29T13:52:54;3.40;;;2.50;;
9906;SDS011;4992;51.628;6.664;2022-07-29T13:55:19;4.18;;;3.08;;
9906;SDS011;4992;51.628;6.664;2022-07-29T13:57:45;5.93;;;2.70;;
9906;SDS011;4992;51.628;6.664;2022-07-29T14:00:11;2.00;;;1.70;;
9906;SDS011;4992;51.628;6.664;2022-07-29T14:02:37;6.63;;;2.10;;
9906;SDS011;4992;51.628;6.664;2022-07-29T14:05:04;2.78;;;2.38;;
9906;SDS011;4992;51.628;6.664;2022-07-29T14:07:31;3.53;;;2.30;;
9906;SDS011;4992;51.628;6.664;2022-07-29T14:09:56;7.75;;;5.90;;
9906;SDS011;4992;51.628;6.664;2022-07-29T14:12:22;5.90;;;4.22;;
9906;SDS011;4992;51.628;6.664;2022-07-29T14:14:47;6.43;;;2.85;;
9906;SDS011;4992;51.628;6.664;2022-07-29T14:17:13;4.07;;;2.20;;
9906;SDS011;4992;51.628;6.664;2022-07-29T14:19:40;5.03;;;2.08;;
9906;SDS011;4992;51.628;6.664;2022-07-29T14:22:06;2.85;;;1.90;;
9906;SDS011;4992;51.628;6.664;2022-07-29T14:24:33;2.45;;;1.95;;
9906;SDS011;4992;51.628;6.664;2022-07-29T14:26:59;3.45;;;1.92;;
9906;SDS011;4992;51.628;6.664;2022-07-29T14:29:25;2.58;;;1.75;;
9906;SDS011;4992;51.628;6.664;2022-07-29T14:31:50;2.83;;;1.73;;
9906;SDS011;4992;51.628;6.664;2022-07-29T14:34:16;5.82;;;1.50;;
9906;SDS011;4992;51.628;6.664;2022-07-29T14:36:42;6.47;;;2.20;;
9906;SDS011;4992;51.628;6.664;2022-07-29T14:39:07;3.33;;;1.63;;
9906;SDS011;4992;51.628;6.664;2022-07-29T14:41:33;8.02;;;1.50;;
9906;SDS011;4992;51.628;6.664;2022-07-29T14:43:58;3.10;;;1.35;;
9906;SDS011;4992;51.628;6.664;2022-07-29T14:46:27;2.88;;;1.42;;
9906;SDS011;4992;51.628;6.664;2022-07-29T14:48:53;3.83;;;1.60;;
9906;SDS011;4992;51.628;6.664;2022-07-29T14:51:18;3.78;;;2.05;;
9906;SDS011;4992;51.628;6.664;2022-07-29T14:53:44;2.97;;;1.70;;
9906;SDS011;4992;51.628;6.664;2022-07-29T14:56:10;3.22;;;1.60;;
9906;SDS011;4992;51.628;6.664;2022-07-29T14:58:35;2.90;;;1.60;;
9906;SDS011;4992;51.628;6.664;2022-07-29T15:01:01;3.80;;;1.55;;
9906;SDS011;4992;51.628;6.664;2022-07-29T15:03:27;2.70;;;1.67;;
9906;SDS011;4992;51.628;6.664;2022-07-29T15:05:52;2.08;;;1.50;;
9906;SDS011;4992;51.628;6.664;2022-07-29T15:08:18;3.72;;;1.83;;
9906;SDS011;4992;51.628;6.664;2022-07-29T15:10:45;4.03;;;2.92;;
9906;SDS011;4992;51.628;6.664;2022-07-29T15:13:10;2.20;;;1.50;;
9906;SDS011;4992;51.628;6.664;2022-07-29T15:15:36;2.00;;;1.60;;
9906;SDS011;4992;51.628;6.664;2022-07-29T15:18:01;2.88;;;1.60;;
9906;SDS011;4992;51.628;6.664;2022-07-29T15:20:27;3.38;;;1.63;;
9906;SDS011;4992;51.628;6.664;2022-07-29T15:22:53;3.30;;;1.63;;
9906;SDS011;4992;51.628;6.664;2022-07-29T15:25:20;3.05;;;1.67;;
9906;SDS011;4992;51.628;6.664;2022-07-29T15:27:46;3.22;;;1.80;;
9906;SDS011;4992;51.628;6.664;2022-07-29T15:30:12;3.70;;;2.05;;
9906;SDS011;4992;51.628;6.664;2022-07-29T15:32:37;5.22;;;2.10;;
9906;SDS011;4992;51.628;6.664;2022-07-29T15:35:03;3.60;;;1.95;;
9906;SDS011;4992;51.628;6.664;2022-07-29T15:37:29;1.50;;;1.38;;
9906;SDS011;4992;51.628;6.664;2022-07-29T15:39:55;3.70;;;1.45;;
9906;SDS011;4992;51.628;6.664;2022-07-29T15:42:20;3.15;;;1.67;;
9906;SDS011;4992;51.628;6.664;2022-07-29T15:44:46;3.30;;;1.95;;
9906;SDS011;4992;51.628;6.664;2022-07-29T15:47:11;3.30;;;1.73;;
9906;SDS011;4992;51.628;6.664;2022-07-29T15:49:38;2.17;;;1.30;;
9906;SDS011;4992;51.628;6.664;2022-07-29T15:52:06;3.30;;;1.13;;
9906;SDS011;4992;51.628;6.664;2022-07-29T15:54:34;2.08;;;1.08;;
9906;SDS011;4992;51.628;6.664;2022-07-29T15:57:01;3.35;;;1.50;;
9906;SDS011;4992;51.628;6.664;2022-07-29T15:59:27;4.50;;;1.90;;
9906;SDS011;4992;51.628;6.664;2022-07-29T16:01:53;14.95;;;6.38;;
9906;SDS011;4992;51.628;6.664;2022-07-29T16:04:19;2.47;;;1.20;;
9906;SDS011;4992;51.628;6.664;2022-07-29T16:06:45;3.97;;;1.13;;
9906;SDS011;4992;51.628;6.664;2022-07-29T16:09:12;3.97;;;1.10;;
9906;SDS011;4992;51.628;6.664;2022-07-29T16:11:38;1.75;;;1.55;;
9906;SDS011;4992;51.628;6.664;2022-07-29T16:14:04;4.18;;;1.42;;
9906;SDS011;4992;51.628;6.664;2022-07-29T16:16:29;2.60;;;1.20;;
9906;SDS011;4992;51.628;6.664;2022-07-29T16:18:55;1.95;;;1.05;;